CheckWX is a tool to help pilots better visualize weather data.  It is not intended as a substitute for an official pre-flight weather briefing.

23:34:14 UTC

SAWH METAR
Malvinas Argentinas Airport
Ushuahia, Argentina
Current

34 mins ago

SAWH 192300Z 36003KT 9999 FEW040 03/M03 Q0980
Observed
Jul-19 @ 23:00 UTC
Wind
  • 360° at 3 KTS
Visibility
10,000+ meters
Flight Rules
VFR
Cloud Levels
  • Few at 4,000' AGL
Temperature
C / 37°F
Dewpoint
-3°C / 27°F
Humidity
65%
Altimeter
28.94" Hg
Pressure
979.92 hPa
Previous

2 hours ago

SAWH 192200Z 32007KT 9999 FEW040 SCT080 04/M04 Q0980
Observed
Jul-19 @ 22:00 UTC
Wind
  • 320° at 7 KTS
Visibility
10,000+ meters
Flight Rules
VFR
Cloud Levels
  • Few at 4,000' AGL
  • Scattered at 8,000' AGL
Temperature
C / 39°F
Dewpoint
-4°C / 25°F
Humidity
56%
Altimeter
28.94" Hg
Pressure
979.92 hPa
Previous

3 hours ago

SAWH 192100Z 32010KT 9999 SCT040 SCT060 04/M02 Q0979
Observed
Jul-19 @ 21:00 UTC
Wind
  • 320° at 10 KTS
Visibility
10,000+ meters
Flight Rules
VFR
Cloud Levels
  • Scattered at 4,000' AGL
  • Scattered at 6,000' AGL
Temperature
C / 39°F
Dewpoint
-2°C / 28°F
Humidity
65%
Altimeter
28.91" Hg
Pressure
978.92 hPa